Sand Hill, Missouri
Current Conditions -  °F | °C
As of 5:55 PM on Friday 24 Oct 2014 (Local Time) from KIRK Reporting Station
Clear Clear  
Wind Chill: 67°   Ceiling: Unl
Heat Index: 67°   Visibility: 10mi
Dew Point: 61°   Wind: 9mph
Humidity: 81%   Direction: 180°S
Pressure: 29.93"   Gusts: NA
Location:  40.3469°N, 92.1083°W
Report Text: KIRK 242255Z AUTO 18008KT 10SM CLR 19/16 A2993 RMK AO2 SLP136 T01940161
Loading
Personal Weather Stations






























Interactive Weather Map
Tropical Storm Tracking
New forecast layout! Learn more

10-Day Weather Forecast

Advertisements
Track Severe Weather on mobile